sensor_id;sensor_type;location;lat;lon;timestamp;pressure;altitude;pressure_sealevel;temperature;humidity
81181;BME280;70650;51.408;7.132;2023-12-20T00:00:47;100203.44;;;6.75;98.67
81181;BME280;70650;51.408;7.132;2023-12-20T00:03:13;100199.91;;;6.76;98.26
81181;BME280;70650;51.408;7.132;2023-12-20T00:05:38;100201.53;;;6.78;98.45
81181;BME280;70650;51.408;7.132;2023-12-20T00:08:06;100205.09;;;6.77;98.35
81181;BME280;70650;51.408;7.132;2023-12-20T00:10:31;100202.56;;;6.74;98.10
81181;BME280;70650;51.408;7.132;2023-12-20T00:12:56;100210.66;;;6.70;98.33
81181;BME280;70650;51.408;7.132;2023-12-20T00:15:22;100207.66;;;6.79;96.98
81181;BME280;70650;51.408;7.132;2023-12-20T00:17:47;100214.59;;;6.80;96.90
81181;BME280;70650;51.408;7.132;2023-12-20T00:20:12;100208.66;;;6.76;97.51
81181;BME280;70650;51.408;7.132;2023-12-20T00:22:38;100200.81;;;6.75;97.39
81181;BME280;70650;51.408;7.132;2023-12-20T00:25:03;100207.13;;;6.71;97.94
81181;BME280;70650;51.408;7.132;2023-12-20T00:27:28;100210.53;;;6.73;97.28
81181;BME280;70650;51.408;7.132;2023-12-20T00:29:54;100214.84;;;6.74;97.40
81181;BME280;70650;51.408;7.132;2023-12-20T00:32:20;100212.38;;;6.71;97.67
81181;BME280;70650;51.408;7.132;2023-12-20T00:34:45;100220.44;;;6.66;97.79
81181;BME280;70650;51.408;7.132;2023-12-20T00:37:11;100223.81;;;6.70;97.52
81181;BME280;70650;51.408;7.132;2023-12-20T00:39:36;100226.53;;;6.67;97.55
81181;BME280;70650;51.408;7.132;2023-12-20T00:42:01;100233.75;;;6.61;96.98
81181;BME280;70650;51.408;7.132;2023-12-20T00:44:27;100234.97;;;6.53;96.38
81181;BME280;70650;51.408;7.132;2023-12-20T00:46:52;100236.50;;;6.58;95.99
81181;BME280;70650;51.408;7.132;2023-12-20T00:49:17;100236.00;;;6.49;96.17
81181;BME280;70650;51.408;7.132;2023-12-20T00:51:43;100236.88;;;6.49;95.39
81181;BME280;70650;51.408;7.132;2023-12-20T00:54:08;100250.09;;;6.46;95.45
81181;BME280;70650;51.408;7.132;2023-12-20T00:56:34;100251.84;;;6.47;95.56
81181;BME280;70650;51.408;7.132;2023-12-20T00:59:00;100250.22;;;6.43;95.51
81181;BME280;70650;51.408;7.132;2023-12-20T01:01:25;100261.41;;;6.48;95.01
81181;BME280;70650;51.408;7.132;2023-12-20T01:03:50;100250.22;;;6.43;94.85
81181;BME280;70650;51.408;7.132;2023-12-20T01:06:16;100247.94;;;6.34;95.49
81181;BME280;70650;51.408;7.132;2023-12-20T01:08:42;100248.56;;;6.41;94.60
81181;BME280;70650;51.408;7.132;2023-12-20T01:11:07;100249.78;;;6.32;94.57
81181;BME280;70650;51.408;7.132;2023-12-20T01:13:33;100240.03;;;6.35;94.16
81181;BME280;70650;51.408;7.132;2023-12-20T01:15:58;100241.00;;;6.33;94.71
81181;BME280;70650;51.408;7.132;2023-12-20T01:18:23;100242.84;;;6.31;95.02
81181;BME280;70650;51.408;7.132;2023-12-20T01:20:49;100242.69;;;6.34;95.21
81181;BME280;70650;51.408;7.132;2023-12-20T01:23:14;100238.69;;;6.24;94.90
81181;BME280;70650;51.408;7.132;2023-12-20T01:25:39;100251.66;;;6.28;94.12
81181;BME280;70650;51.408;7.132;2023-12-20T01:28:05;100249.00;;;6.30;94.09
81181;BME280;70650;51.408;7.132;2023-12-20T01:30:30;100260.41;;;6.29;93.36
81181;BME280;70650;51.408;7.132;2023-12-20T01:32:55;100259.59;;;6.27;92.73
81181;BME280;70650;51.408;7.132;2023-12-20T01:35:21;100259.00;;;6.20;92.91
81181;BME280;70650;51.408;7.132;2023-12-20T01:37:46;100261.72;;;6.17;92.97
81181;BME280;70650;51.408;7.132;2023-12-20T01:40:11;100274.81;;;6.19;92.69
81181;BME280;70650;51.408;7.132;2023-12-20T01:42:37;100272.22;;;6.17;92.26
81181;BME280;70650;51.408;7.132;2023-12-20T01:45:02;100268.56;;;6.21;91.77
81181;BME280;70650;51.408;7.132;2023-12-20T01:47:28;100263.56;;;6.15;92.47
81181;BME280;70650;51.408;7.132;2023-12-20T01:49:54;100270.44;;;6.18;92.52
81181;BME280;70650;51.408;7.132;2023-12-20T01:52:22;100267.31;;;6.08;92.82
81181;BME280;70650;51.408;7.132;2023-12-20T01:54:48;100272.84;;;6.00;92.72
81181;BME280;70650;51.408;7.132;2023-12-20T01:57:14;100272.59;;;6.06;92.56
81181;BME280;70650;51.408;7.132;2023-12-20T01:59:40;100261.38;;;6.03;92.67
81181;BME280;70650;51.408;7.132;2023-12-20T02:02:07;100269.34;;;6.00;93.05
81181;BME280;70650;51.408;7.132;2023-12-20T02:04:32;100259.69;;;6.02;91.85
81181;BME280;70650;51.408;7.132;2023-12-20T02:06:58;100263.78;;;6.09;91.96
81181;BME280;70650;51.408;7.132;2023-12-20T02:09:24;100266.00;;;5.96;93.21
81181;BME280;70650;51.408;7.132;2023-12-20T02:11:49;100260.84;;;5.93;92.38
81181;BME280;70650;51.408;7.132;2023-12-20T02:14:15;100268.78;;;5.92;92.36
81181;BME280;70650;51.408;7.132;2023-12-20T02:16:40;100262.81;;;5.87;92.45
81181;BME280;70650;51.408;7.132;2023-12-20T02:19:12;100262.34;;;5.75;92.94
81181;BME280;70650;51.408;7.132;2023-12-20T02:21:38;100270.50;;;5.68;93.38
81181;BME280;70650;51.408;7.132;2023-12-20T02:24:03;100263.19;;;5.76;92.86
81181;BME280;70650;51.408;7.132;2023-12-20T02:26:29;100274.81;;;5.69;92.88
81181;BME280;70650;51.408;7.132;2023-12-20T02:28:54;100269.38;;;5.75;92.99
81181;BME280;70650;51.408;7.132;2023-12-20T02:31:23;100253.22;;;5.62;93.38
81181;BME280;70650;51.408;7.132;2023-12-20T02:33:48;100255.22;;;5.54;93.88
81181;BME280;70650;51.408;7.132;2023-12-20T02:36:14;100265.78;;;5.52;93.75
81181;BME280;70650;51.408;7.132;2023-12-20T02:38:39;100265.72;;;5.54;94.03
81181;BME280;70650;51.408;7.132;2023-12-20T02:41:05;100264.09;;;5.50;94.06
81181;BME280;70650;51.408;7.132;2023-12-20T02:43:30;100265.78;;;5.52;94.22
81181;BME280;70650;51.408;7.132;2023-12-20T02:45:55;100265.78;;;5.52;93.97
81181;BME280;70650;51.408;7.132;2023-12-20T02:48:21;100265.56;;;5.58;93.58
81181;BME280;70650;51.408;7.132;2023-12-20T02:50:47;100266.56;;;5.54;93.84
81181;BME280;70650;51.408;7.132;2023-12-20T02:53:14;100262.25;;;5.53;93.75
81181;BME280;70650;51.408;7.132;2023-12-20T02:55:39;100256.19;;;5.51;94.07
81181;BME280;70650;51.408;7.132;2023-12-20T02:58:05;100258.06;;;5.48;93.18
81181;BME280;70650;51.408;7.132;2023-12-20T03:00:30;100263.25;;;5.49;93.30
81181;BME280;70650;51.408;7.132;2023-12-20T03:02:55;100267.53;;;5.52;93.11
81181;BME280;70650;51.408;7.132;2023-12-20T03:05:20;100273.38;;;5.60;92.58
81181;BME280;70650;51.408;7.132;2023-12-20T03:07:46;100280.44;;;5.58;92.93
81181;BME280;70650;51.408;7.132;2023-12-20T03:10:11;100273.66;;;5.52;92.54
81181;BME280;70650;51.408;7.132;2023-12-20T03:12:36;100266.69;;;5.51;92.96
81181;BME280;70650;51.408;7.132;2023-12-20T03:15:02;100266.56;;;5.54;92.76
81181;BME280;70650;51.408;7.132;2023-12-20T03:17:27;100272.84;;;5.50;92.93
81181;BME280;70650;51.408;7.132;2023-12-20T03:19:53;100276.53;;;5.45;92.88
81181;BME280;70650;51.408;7.132;2023-12-20T03:22:18;100264.97;;;5.50;93.28
81181;BME280;70650;51.408;7.132;2023-12-20T03:24:43;100261.66;;;5.45;92.98
81181;BME280;70650;51.408;7.132;2023-12-20T03:27:09;100266.19;;;5.40;93.07
81181;BME280;70650;51.408;7.132;2023-12-20T03:29:34;100253.13;;;5.39;92.88
81181;BME280;70650;51.408;7.132;2023-12-20T03:31:59;100273.25;;;5.38;93.43
81181;BME280;70650;51.408;7.132;2023-12-20T03:34:25;100270.03;;;5.30;93.00
81181;BME280;70650;51.408;7.132;2023-12-20T03:36:50;100255.16;;;5.30;93.16
81181;BME280;70650;51.408;7.132;2023-12-20T03:39:15;100259.63;;;5.27;93.37
81181;BME280;70650;51.408;7.132;2023-12-20T03:41:40;100257.84;;;5.29;93.10
81181;BME280;70650;51.408;7.132;2023-12-20T03:44:06;100251.91;;;5.24;93.08
81181;BME280;70650;51.408;7.132;2023-12-20T03:46:31;100255.47;;;5.21;92.92
81181;BME280;70650;51.408;7.132;2023-12-20T03:48:56;100249.41;;;5.19;93.44
81181;BME280;70650;51.408;7.132;2023-12-20T03:51:22;100253.03;;;5.15;93.55
81181;BME280;70650;51.408;7.132;2023-12-20T03:53:47;100247.91;;;5.12;93.43
81181;BME280;70650;51.408;7.132;2023-12-20T03:56:13;100260.13;;;5.13;93.56
81181;BME280;70650;51.408;7.132;2023-12-20T03:58:38;100261.72;;;5.17;93.29
81181;BME280;70650;51.408;7.132;2023-12-20T04:01:09;100259.13;;;5.17;93.54
81181;BME280;70650;51.408;7.132;2023-12-20T04:03:35;100266.22;;;5.14;94.04
81181;BME280;70650;51.408;7.132;2023-12-20T04:06:00;100256.56;;;5.14;94.18
81181;BME280;70650;51.408;7.132;2023-12-20T04:08:26;100257.63;;;5.09;94.42
81181;BME280;70650;51.408;7.132;2023-12-20T04:10:51;100253.44;;;5.03;94.32
81181;BME280;70650;51.408;7.132;2023-12-20T04:13:16;100246.50;;;5.02;94.55
81181;BME280;70650;51.408;7.132;2023-12-20T04:15:41;100235.06;;;5.04;93.91
81181;BME280;70650;51.408;7.132;2023-12-20T04:18:07;100239.44;;;5.04;94.45
81181;BME280;70650;51.408;7.132;2023-12-20T04:20:32;100233.34;;;5.03;94.34
81181;BME280;70650;51.408;7.132;2023-12-20T04:22:57;100237.78;;;5.01;94.81
81181;BME280;70650;51.408;7.132;2023-12-20T04:25:23;100249.91;;;5.04;94.00
81181;BME280;70650;51.408;7.132;2023-12-20T04:27:48;100249.97;;;5.02;93.96
81181;BME280;70650;51.408;7.132;2023-12-20T04:30:13;100240.28;;;5.04;94.16
81181;BME280;70650;51.408;7.132;2023-12-20T04:32:39;100248.13;;;5.06;93.63
81181;BME280;70650;51.408;7.132;2023-12-20T04:35:04;100252.53;;;5.04;93.83
81181;BME280;70650;51.408;7.132;2023-12-20T04:37:30;100240.34;;;5.03;93.94
81181;BME280;70650;51.408;7.132;2023-12-20T04:39:55;100249.84;;;5.07;93.97
81181;BME280;70650;51.408;7.132;2023-12-20T04:42:20;100256.72;;;5.10;94.01
81181;BME280;70650;51.408;7.132;2023-12-20T04:44:45;100257.63;;;5.09;94.13
81181;BME280;70650;51.408;7.132;2023-12-20T04:47:11;100261.97;;;5.10;93.57
81181;BME280;70650;51.408;7.132;2023-12-20T04:49:36;100265.50;;;5.09;93.61
81181;BME280;70650;51.408;7.132;2023-12-20T04:52:01;100261.16;;;5.08;93.36
81181;BME280;70650;51.408;7.132;2023-12-20T04:54:27;100271.56;;;5.11;93.56
81181;BME280;70650;51.408;7.132;2023-12-20T04:56:52;100261.16;;;5.08;93.85
81181;BME280;70650;51.408;7.132;2023-12-20T04:59:17;100270.09;;;5.02;93.57
81181;BME280;70650;51.408;7.132;2023-12-20T05:01:43;100275.28;;;5.03;93.60
81181;BME280;70650;51.408;7.132;2023-12-20T05:04:08;100262.16;;;5.03;93.51
81181;BME280;70650;51.408;7.132;2023-12-20T05:06:33;100263.84;;;5.06;93.39
81181;BME280;70650;51.408;7.132;2023-12-20T05:08:58;100263.84;;;5.06;93.07
81181;BME280;70650;51.408;7.132;2023-12-20T05:11:24;100273.38;;;5.09;92.96
81181;BME280;70650;51.408;7.132;2023-12-20T05:13:49;100277.03;;;5.03;93.21
81181;BME280;70650;51.408;7.132;2023-12-20T05:16:14;100267.38;;;5.05;93.33
81181;BME280;70650;51.408;7.132;2023-12-20T05:18:42;100266.50;;;5.04;93.32
81181;BME280;70650;51.408;7.132;2023-12-20T05:21:08;100260.16;;;5.12;93.12
81181;BME280;70650;51.408;7.132;2023-12-20T05:23:33;100258.47;;;5.11;92.98
81181;BME280;70650;51.408;7.132;2023-12-20T05:25:59;100265.69;;;5.02;93.24
81181;BME280;70650;51.408;7.132;2023-12-20T05:28:24;100271.91;;;5.00;92.95
81181;BME280;70650;51.408;7.132;2023-12-20T05:30:50;100272.78;;;4.99;93.12
81181;BME280;70650;51.408;7.132;2023-12-20T05:33:16;100275.47;;;4.97;92.92
81181;BME280;70650;51.408;7.132;2023-12-20T05:35:41;100257.97;;;4.99;93.04
81181;BME280;70650;51.408;7.132;2023-12-20T05:38:06;100245.03;;;4.93;93.54
81181;BME280;70650;51.408;7.132;2023-12-20T05:40:32;100254.63;;;4.94;93.48
81181;BME280;70650;51.408;7.132;2023-12-20T05:42:57;100262.38;;;4.97;93.14
81181;BME280;70650;51.408;7.132;2023-12-20T05:45:22;100245.84;;;4.95;93.33
81181;BME280;70650;51.408;7.132;2023-12-20T05:47:47;100248.34;;;4.98;93.24
81181;BME280;70650;51.408;7.132;2023-12-20T05:50:13;100247.66;;;4.93;93.30
81181;BME280;70650;51.408;7.132;2023-12-20T05:52:38;100247.66;;;4.93;93.23
81181;BME280;70650;51.408;7.132;2023-12-20T05:55:03;100248.47;;;4.95;93.34
81181;BME280;70650;51.408;7.132;2023-12-20T05:57:29;100245.03;;;4.93;93.33
81181;BME280;70650;51.408;7.132;2023-12-20T05:59:54;100245.84;;;4.95;93.22
81181;BME280;70650;51.408;7.132;2023-12-20T06:02:20;100254.50;;;4.97;93.30
81181;BME280;70650;51.408;7.132;2023-12-20T06:04:45;100252.88;;;4.95;93.26
81181;BME280;70650;51.408;7.132;2023-12-20T06:07:15;100259.66;;;5.00;93.29
81181;BME280;70650;51.408;7.132;2023-12-20T06:09:40;100256.94;;;5.03;92.87
81181;BME280;70650;51.408;7.132;2023-12-20T06:12:07;100256.13;;;5.01;92.82
81181;BME280;70650;51.408;7.132;2023-12-20T06:14:32;100258.63;;;5.04;92.76
81181;BME280;70650;51.408;7.132;2023-12-20T06:16:57;100263.88;;;5.04;92.74
81181;BME280;70650;51.408;7.132;2023-12-20T06:19:23;100255.16;;;5.04;92.37
81181;BME280;70650;51.408;7.132;2023-12-20T06:21:48;100260.31;;;5.07;92.89
81181;BME280;70650;51.408;7.132;2023-12-20T06:24:14;100261.97;;;5.10;92.15
81181;BME280;70650;51.408;7.132;2023-12-20T06:26:39;100258.47;;;5.11;92.43
81181;BME280;70650;51.408;7.132;2023-12-20T06:29:04;100253.25;;;5.09;92.36
81181;BME280;70650;51.408;7.132;2023-12-20T06:31:29;100252.47;;;5.07;92.49
81181;BME280;70650;51.408;7.132;2023-12-20T06:33:55;100260.38;;;5.05;92.64
81181;BME280;70650;51.408;7.132;2023-12-20T06:36:23;100258.63;;;5.04;92.74
81181;BME280;70650;51.408;7.132;2023-12-20T06:38:49;100262.03;;;5.08;92.44
81181;BME280;70650;51.408;7.132;2023-12-20T06:41:15;100252.59;;;5.02;92.62
81181;BME280;70650;51.408;7.132;2023-12-20T06:43:41;100255.16;;;5.04;92.46
81181;BME280;70650;51.408;7.132;2023-12-20T06:46:06;100260.25;;;5.09;92.30
81181;BME280;70650;51.408;7.132;2023-12-20T06:48:31;100258.34;;;5.14;92.31
81181;BME280;70650;51.408;7.132;2023-12-20T06:50:59;100262.69;;;5.15;92.36
81181;BME280;70650;51.408;7.132;2023-12-20T06:53:24;100257.50;;;5.13;92.18
81181;BME280;70650;51.408;7.132;2023-12-20T06:55:49;100256.63;;;5.13;92.40
81181;BME280;70650;51.408;7.132;2023-12-20T06:58:15;100258.50;;;5.09;92.21
81181;BME280;70650;51.408;7.132;2023-12-20T07:00:40;100262.69;;;5.15;91.92
81181;BME280;70650;51.408;7.132;2023-12-20T07:03:05;100266.91;;;5.19;91.48
81181;BME280;70650;51.408;7.132;2023-12-20T07:05:31;100260.88;;;5.17;91.78
81181;BME280;70650;51.408;7.132;2023-12-20T07:07:56;100261.69;;;5.19;91.87
81181;BME280;70650;51.408;7.132;2023-12-20T07:10:21;100255.53;;;5.20;91.53
81181;BME280;70650;51.408;7.132;2023-12-20T07:12:47;100253.72;;;5.22;91.25
81181;BME280;70650;51.408;7.132;2023-12-20T07:15:14;100246.75;;;5.21;91.00
81181;BME280;70650;51.408;7.132;2023-12-20T07:17:39;100243.81;;;5.30;90.92
81181;BME280;70650;51.408;7.132;2023-12-20T07:20:05;100248.41;;;5.23;91.34
81181;BME280;70650;51.408;7.132;2023-12-20T07:22:31;100238.63;;;5.28;90.82
81181;BME280;70650;51.408;7.132;2023-12-20T07:24:58;100243.06;;;5.26;91.26
81181;BME280;70650;51.408;7.132;2023-12-20T07:27:24;100248.09;;;5.32;90.67
81181;BME280;70650;51.408;7.132;2023-12-20T07:29:49;100242.97;;;5.29;90.82
81181;BME280;70650;51.408;7.132;2023-12-20T07:32:15;100256.06;;;5.29;91.03
81181;BME280;70650;51.408;7.132;2023-12-20T07:34:40;100248.94;;;5.33;90.77
81181;BME280;70650;51.408;7.132;2023-12-20T07:37:05;100248.06;;;5.34;90.94
81181;BME280;70650;51.408;7.132;2023-12-20T07:39:31;100251.47;;;5.36;90.30
81181;BME280;70650;51.408;7.132;2023-12-20T07:41:56;100259.25;;;5.39;90.18
81181;BME280;70650;51.408;7.132;2023-12-20T07:44:21;100263.72;;;5.36;90.02
81181;BME280;70650;51.408;7.132;2023-12-20T07:46:47;100261.03;;;5.37;90.38
81181;BME280;70650;51.408;7.132;2023-12-20T07:49:13;100263.66;;;5.37;90.06
81181;BME280;70650;51.408;7.132;2023-12-20T07:51:39;100263.66;;;5.37;90.15
81181;BME280;70650;51.408;7.132;2023-12-20T07:54:04;100260.13;;;5.38;89.99
81181;BME280;70650;51.408;7.132;2023-12-20T07:56:30;100267.16;;;5.38;90.29
81181;BME280;70650;51.408;7.132;2023-12-20T07:58:55;100267.06;;;5.41;90.12
81181;BME280;70650;51.408;7.132;2023-12-20T08:01:20;100261.69;;;5.44;90.09
81181;BME280;70650;51.408;7.132;2023-12-20T08:03:46;100259.28;;;5.38;89.93
81181;BME280;70650;51.408;7.132;2023-12-20T08:06:11;100259.34;;;5.36;90.42
81181;BME280;70650;51.408;7.132;2023-12-20T08:08:37;100244.63;;;5.32;90.12
81181;BME280;70650;51.408;7.132;2023-12-20T08:11:04;100249.84;;;5.32;90.09
81181;BME280;70650;51.408;7.132;2023-12-20T08:13:29;100252.47;;;5.32;90.66
81181;BME280;70650;51.408;7.132;2023-12-20T08:15:55;100265.72;;;5.29;90.88
81181;BME280;70650;51.408;7.132;2023-12-20T08:18:21;100265.66;;;5.30;90.72
81181;BME280;70650;51.408;7.132;2023-12-20T08:20:46;100271.69;;;5.32;90.88
81181;BME280;70650;51.408;7.132;2023-12-20T08:23:13;100263.59;;;5.39;90.44
81181;BME280;70650;51.408;7.132;2023-12-20T08:25:38;100260.47;;;5.29;90.67
81181;BME280;70650;51.408;7.132;2023-12-20T08:28:04;100269.06;;;5.32;90.53
81181;BME280;70650;51.408;7.132;2023-12-20T08:30:30;100258.56;;;5.32;90.32
81181;BME280;70650;51.408;7.132;2023-12-20T08:32:56;100261.09;;;5.36;90.11
81181;BME280;70650;51.408;7.132;2023-12-20T08:35:21;100260.97;;;5.39;90.17
81181;BME280;70650;51.408;7.132;2023-12-20T08:37:47;100275.78;;;5.41;90.26
81181;BME280;70650;51.408;7.132;2023-12-20T08:40:12;100265.16;;;5.44;90.20
81181;BME280;70650;51.408;7.132;2023-12-20T08:42:38;100273.16;;;5.41;89.90
81181;BME280;70650;51.408;7.132;2023-12-20T08:45:04;100267.78;;;5.44;89.88
81181;BME280;70650;51.408;7.132;2023-12-20T08:47:30;100272.25;;;5.42;89.92
81181;BME280;70650;51.408;7.132;2023-12-20T08:49:55;100260.03;;;5.41;89.79
81181;BME280;70650;51.408;7.132;2023-12-20T08:52:24;100275.63;;;5.46;89.69
81181;BME280;70650;51.408;7.132;2023-12-20T08:54:50;100276.34;;;5.49;89.65
81181;BME280;70650;51.408;7.132;2023-12-20T08:57:19;100273.72;;;5.51;89.59
81181;BME280;70650;51.408;7.132;2023-12-20T08:59:46;100277.28;;;5.48;89.59
81181;BME280;70650;51.408;7.132;2023-12-20T09:02:11;100263.25;;;5.49;89.06
81181;BME280;70650;51.408;7.132;2023-12-20T09:04:37;100260.63;;;5.49;89.12
81181;BME280;70650;51.408;7.132;2023-12-20T09:07:03;100269.34;;;5.50;89.16
81181;BME280;70650;51.408;7.132;2023-12-20T09:09:28;100260.47;;;5.54;88.84
81181;BME280;70650;51.408;7.132;2023-12-20T09:11:56;100252.72;;;5.51;88.99
81181;BME280;70650;51.408;7.132;2023-12-20T09:14:24;100250.97;;;5.51;88.63
81181;BME280;70650;51.408;7.132;2023-12-20T09:20:18;100244.78;;;5.52;88.30
81181;BME280;70650;51.408;7.132;2023-12-20T09:22:44;100253.09;;;5.65;88.42
81181;BME280;70650;51.408;7.132;2023-12-20T09:25:10;100247.78;;;5.67;87.94
81181;BME280;70650;51.408;7.132;2023-12-20T09:27:36;100247.19;;;5.58;88.59
81181;BME280;70650;51.408;7.132;2023-12-20T09:30:02;100247.09;;;5.62;88.34
81181;BME280;70650;51.408;7.132;2023-12-20T09:32:27;100260.03;;;5.66;88.07
81181;BME280;70650;51.408;7.132;2023-12-20T09:34:54;100258.44;;;5.62;88.33
81181;BME280;70650;51.408;7.132;2023-12-20T09:37:20;100258.38;;;5.64;88.21
81181;BME280;70650;51.408;7.132;2023-12-20T09:39:45;100246.00;;;5.67;88.13
81181;BME280;70650;51.408;7.132;2023-12-20T09:42:12;100242.53;;;5.67;88.71
81181;BME280;70650;51.408;7.132;2023-12-20T09:44:41;100255.78;;;5.64;88.20
81181;BME280;70650;51.408;7.132;2023-12-20T09:47:07;100240.25;;;5.57;87.91
81181;BME280;70650;51.408;7.132;2023-12-20T09:49:33;100249.03;;;5.56;88.59
81181;BME280;70650;51.408;7.132;2023-12-20T09:52:00;100250.53;;;5.64;88.08
81181;BME280;70650;51.408;7.132;2023-12-20T09:54:27;100258.44;;;5.62;88.30
81181;BME280;70650;51.408;7.132;2023-12-20T09:56:53;100246.19;;;5.63;87.89
81181;BME280;70650;51.408;7.132;2023-12-20T09:59:19;100252.22;;;5.65;87.88
81181;BME280;70650;51.408;7.132;2023-12-20T10:01:44;100254.78;;;5.66;87.69
81181;BME280;70650;51.408;7.132;2023-12-20T10:04:12;100231.25;;;5.65;87.73
81181;BME280;70650;51.408;7.132;2023-12-20T10:06:42;100258.03;;;5.73;87.36
81181;BME280;70650;51.408;7.132;2023-12-20T10:09:09;100245.06;;;5.70;87.68
81181;BME280;70650;51.408;7.132;2023-12-20T10:11:36;100238.19;;;5.66;87.57
81181;BME280;70650;51.408;7.132;2023-12-20T10:14:02;100250.84;;;5.79;87.36
81181;BME280;70650;51.408;7.132;2023-12-20T10:16:28;100239.50;;;5.79;87.43
81181;BME280;70650;51.408;7.132;2023-12-20T10:18:54;100247.47;;;5.76;87.62
81181;BME280;70650;51.408;7.132;2023-12-20T10:21:20;100230.72;;;5.78;87.50
81181;BME280;70650;51.408;7.132;2023-12-20T10:23:48;100225.72;;;5.72;87.94
81181;BME280;70650;51.408;7.132;2023-12-20T10:26:26;100235.25;;;5.75;88.13
81181;BME280;70650;51.408;7.132;2023-12-20T10:28:53;100246.88;;;5.68;88.46
81181;BME280;70650;51.408;7.132;2023-12-20T10:31:26;100223.28;;;5.68;88.44
81181;BME280;70650;51.408;7.132;2023-12-20T10:33:52;100211.03;;;5.67;88.96
81181;BME280;70650;51.408;7.132;2023-12-20T10:36:18;100229.41;;;5.67;88.55
81181;BME280;70650;51.408;7.132;2023-12-20T10:38:44;100227.59;;;5.69;88.75
81181;BME280;70650;51.408;7.132;2023-12-20T10:41:10;100234.66;;;5.67;88.54
81181;BME280;70650;51.408;7.132;2023-12-20T10:43:36;100208.09;;;5.76;88.11
81181;BME280;70650;51.408;7.132;2023-12-20T10:46:03;100204.47;;;5.80;87.76
81181;BME280;70650;51.408;7.132;2023-12-20T10:48:30;100211.50;;;5.78;88.13
81181;BME280;70650;51.408;7.132;2023-12-20T10:50:56;100204.56;;;5.77;87.82
81181;BME280;70650;51.408;7.132;2023-12-20T10:53:26;100222.94;;;5.77;87.84
81181;BME280;70650;51.408;7.132;2023-12-20T10:55:54;100205.38;;;5.79;87.87
81181;BME280;70650;51.408;7.132;2023-12-20T10:58:22;100210.78;;;5.74;88.03
81181;BME280;70650;51.408;7.132;2023-12-20T11:00:53;100220.47;;;5.72;88.19
81181;BME280;70650;51.408;7.132;2023-12-20T11:03:22;100211.50;;;5.78;88.02
81181;BME280;70650;51.408;7.132;2023-12-20T11:05:59;100213.19;;;5.80;88.22
81181;BME280;70650;51.408;7.132;2023-12-20T11:11:06;100211.72;;;5.73;88.14
81181;BME280;70650;51.408;7.132;2023-12-20T11:13:36;100212.44;;;5.77;88.96
81181;BME280;70650;51.408;7.132;2023-12-20T11:16:03;100216.81;;;5.76;88.72
81181;BME280;70650;51.408;7.132;2023-12-20T11:18:30;100208.88;;;5.79;88.23
81181;BME280;70650;51.408;7.132;2023-12-20T11:21:00;100230.69;;;5.80;88.04
81181;BME280;70650;51.408;7.132;2023-12-20T11:23:26;100221.13;;;5.79;88.47
81181;BME280;70650;51.408;7.132;2023-12-20T11:25:54;100209.81;;;5.77;88.53
81181;BME280;70650;51.408;7.132;2023-12-20T11:28:23;100201.94;;;5.77;88.49
81181;BME280;70650;51.408;7.132;2023-12-20T11:30:50;100208.25;;;5.71;89.27
81181;BME280;70650;51.408;7.132;2023-12-20T11:33:16;100202.84;;;5.76;89.20
81181;BME280;70650;51.408;7.132;2023-12-20T11:35:42;100207.25;;;5.75;89.02
81181;BME280;70650;51.408;7.132;2023-12-20T11:38:09;100199.06;;;5.84;89.01
81181;BME280;70650;51.408;7.132;2023-12-20T11:40:35;100197.50;;;5.79;89.37
81181;BME280;70650;51.408;7.132;2023-12-20T11:43:02;100195.69;;;5.81;89.08
81181;BME280;70650;51.408;7.132;2023-12-20T11:45:27;100190.66;;;5.75;89.45
81181;BME280;70650;51.408;7.132;2023-12-20T11:47:53;100191.38;;;5.78;89.20
81181;BME280;70650;51.408;7.132;2023-12-20T11:50:23;100192.06;;;5.83;89.57
81181;BME280;70650;51.408;7.132;2023-12-20T11:52:49;100168.75;;;5.76;89.15
81181;BME280;70650;51.408;7.132;2023-12-20T11:55:15;100171.06;;;5.83;89.49
81181;BME280;70650;51.408;7.132;2023-12-20T11:57:41;100176.28;;;5.85;89.74
81181;BME280;70650;51.408;7.132;2023-12-20T12:00:07;100177.94;;;5.88;89.61
81181;BME280;70650;51.408;7.132;2023-12-20T12:02:33;100173.47;;;5.90;89.66
81181;BME280;70650;51.408;7.132;2023-12-20T12:05:01;100175.31;;;5.88;89.57
81181;BME280;70650;51.408;7.132;2023-12-20T12:07:27;100177.81;;;5.92;89.86
81181;BME280;70650;51.408;7.132;2023-12-20T12:09:52;100164.72;;;5.91;90.02
81181;BME280;70650;51.408;7.132;2023-12-20T12:12:19;100169.00;;;5.93;89.71
81181;BME280;70650;51.408;7.132;2023-12-20T12:14:45;100170.53;;;5.75;90.75
81181;BME280;70650;51.408;7.132;2023-12-20T12:17:14;100164.28;;;5.78;90.84
81181;BME280;70650;51.408;7.132;2023-12-20T12:19:41;100160.88;;;5.76;90.74
81181;BME280;70650;51.408;7.132;2023-12-20T12:22:10;100153.81;;;5.78;90.68
81181;BME280;70650;51.408;7.132;2023-12-20T12:24:42;100157.50;;;5.72;91.13
81181;BME280;70650;51.408;7.132;2023-12-20T12:27:08;100157.34;;;5.77;91.48
81181;BME280;70650;51.408;7.132;2023-12-20T12:29:34;100160.72;;;5.80;91.50
81181;BME280;70650;51.408;7.132;2023-12-20T12:32:00;100150.16;;;5.82;91.45
81181;BME280;70650;51.408;7.132;2023-12-20T12:34:29;100143.19;;;5.81;91.84
81181;BME280;70650;51.408;7.132;2023-12-20T12:36:55;100149.19;;;5.84;90.92
81181;BME280;70650;51.408;7.132;2023-12-20T12:39:23;100140.50;;;5.82;91.19
81181;BME280;70650;51.408;7.132;2023-12-20T12:41:50;100137.81;;;5.84;90.50
81181;BME280;70650;51.408;7.132;2023-12-20T12:44:15;100147.22;;;5.91;90.90
81181;BME280;70650;51.408;7.132;2023-12-20T12:46:41;100148.22;;;5.87;90.68
81181;BME280;70650;51.408;7.132;2023-12-20T12:49:06;100140.94;;;5.95;91.11
81181;BME280;70650;51.408;7.132;2023-12-20T12:51:31;100143.56;;;5.95;90.43
81181;BME280;70650;51.408;7.132;2023-12-20T12:53:57;100133.97;;;5.94;90.57
81181;BME280;70650;51.408;7.132;2023-12-20T12:56:22;100137.34;;;5.98;90.55
81181;BME280;70650;51.408;7.132;2023-12-20T12:58:48;100118.81;;;6.02;90.58